Time;durP1;ratioP1;P1;durP2;ratioP2;P2;SDS_P1;SDS_P2;PMS_P1;PMS_P2;Temp;Humidity;BMP_temperature;BMP_pressure;BME280_temperature;BME280_humidity;BME280_pressure;Samples;Min_cycle;Max_cycle;Signal;HPM_P1;HPM_P2
2022/12/20 00:01:26;;;;;;;2.78;2.10;;;;;;;14.09;58.13;101302.09;5095683;28;20040;-70
2022/12/20 00:03:54;;;;;;;2.55;2.13;;;;;;;14.12;57.86;101287.50;5095905;28;20040;-70
2022/12/20 00:06:21;;;;;;;2.50;2.30;;;;;;;14.14;58.08;101282.88;5094762;28;20048;-70
2022/12/20 00:08:56;;;;;;;3.70;2.22;;;;;;;14.14;58.06;101272.06;5095180;28;20561;-70
2022/12/20 00:11:24;;;;;;;2.28;2.00;;;;;;;14.13;57.62;101283.84;5095717;28;20051;-70
2022/12/20 00:13:50;;;;;;;3.78;2.40;;;;;;;14.13;57.58;101298.22;5095520;28;20040;-71
2022/12/20 00:16:19;;;;;;;3.13;2.10;;;;;;;14.10;57.64;101290.31;5094935;28;20490;-70
2022/12/20 00:18:49;;;;;;;3.25;1.95;;;;;;;14.10;57.49;101287.63;5077747;28;20050;-71
2022/12/20 00:21:16;;;;;;;2.67;2.10;;;;;;;14.10;57.85;101294.88;5095651;28;20127;-70
2022/12/20 00:23:43;;;;;;;4.60;2.38;;;;;;;14.09;57.72;101294.00;5095142;28;20482;-70
2022/12/20 00:26:15;;;;;;;3.17;2.00;;;;;;;14.10;57.55;101286.75;5094498;28;20099;-70
2022/12/20 00:28:44;;;;;;;2.88;2.25;;;;;;;14.11;57.67;101286.63;5094067;28;20048;-70
2022/12/20 00:31:13;;;;;;;5.32;2.22;;;;;;;14.13;57.97;101286.56;5095482;28;20142;-71
2022/12/20 00:33:40;;;;;;;3.10;1.98;;;;;;;14.15;57.50;101273.78;5093984;28;20044;-70
2022/12/20 00:36:07;;;;;;;3.90;2.40;;;;;;;14.15;57.82;101268.38;5093975;28;20036;-70
2022/12/20 00:38:34;;;;;;;4.32;2.10;;;;;;;14.15;57.56;101266.53;5095023;28;20063;-69
2022/12/20 00:41:06;;;;;;;4.13;2.30;;;;;;;14.16;57.73;101264.69;5095006;28;20448;-71
2022/12/20 00:43:35;;;;;;;4.80;2.08;;;;;;;14.17;57.23;101269.13;5094977;28;20406;-71
2022/12/20 00:46:03;;;;;;;3.47;2.30;;;;;;;14.18;57.17;101262.72;5094098;28;20136;-70
2022/12/20 00:48:32;;;;;;;5.18;2.45;;;;;;;14.17;57.14;101267.28;5093378;28;20036;-70
2022/12/20 00:51:05;;;;;;;3.50;2.20;;;;;;;14.19;57.33;101259.91;5085117;28;20051;-71
2022/12/20 00:53:32;;;;;;;2.65;2.15;;;;;;;14.21;57.30;101251.69;5074459;28;20041;-70
2022/12/20 00:55:59;;;;;;;3.65;2.20;;;;;;;14.23;57.25;101255.13;5073366;28;20040;-71
2022/12/20 00:58:26;;;;;;;3.70;2.15;;;;;;;14.24;57.32;101254.13;5075276;28;20471;-70
2022/12/20 01:00:54;;;;;;;3.20;2.05;;;;;;;14.24;57.07;101246.91;5074327;28;20040;-70
2022/12/20 01:03:23;;;;;;;4.55;2.20;;;;;;;14.26;57.01;101239.53;5074564;28;20051;-70
2022/12/20 01:05:57;;;;;;;2.25;1.92;;;;;;;14.28;57.14;101256.47;5074114;28;20494;-70
2022/12/20 01:08:25;;;;;;;3.67;2.00;;;;;;;14.31;57.36;101258.06;5074418;28;20044;-70
2022/12/20 01:11:11;;;;;;;2.97;2.10;;;;;;;14.32;57.08;101254.38;5074157;28;20509;-70
2022/12/20 01:13:42;;;;;;;4.32;2.30;;;;;;;14.33;56.84;101256.09;5072737;28;20482;-69
2022/12/20 01:16:13;;;;;;;3.22;1.90;;;;;;;14.33;56.94;101245.28;5072900;28;20499;-70
2022/12/20 01:18:40;;;;;;;3.58;2.10;;;;;;;14.35;56.94;101254.13;5074601;28;20037;-69
2022/12/20 01:21:09;;;;;;;3.63;2.00;;;;;;;14.38;57.22;101258.44;5083724;28;20067;-71
2022/12/20 01:23:36;;;;;;;4.68;2.10;;;;;;;14.40;57.23;101257.31;5094342;28;20040;-70
2022/12/20 01:26:07;;;;;;;4.00;2.55;;;;;;;14.42;56.97;101254.50;5092938;28;20043;-70
2022/12/20 01:28:36;;;;;;;3.97;2.20;;;;;;;14.41;57.46;101269.00;5093787;28;20085;-70
2022/12/20 01:31:11;;;;;;;3.72;2.20;;;;;;;14.40;57.21;101269.97;5092877;28;20051;-71
2022/12/20 01:33:38;;;;;;;6.07;2.28;;;;;;;14.39;57.38;101268.25;5076396;28;20044;-72
2022/12/20 01:36:11;;;;;;;3.85;2.15;;;;;;;14.36;57.59;101271.22;5071748;28;20502;-70
2022/12/20 01:38:38;;;;;;;3.63;2.10;;;;;;;14.34;57.27;101268.63;5073713;28;20486;-70
2022/12/20 01:41:05;;;;;;;3.28;2.10;;;;;;;14.30;57.57;101259.91;5073587;28;20041;-71
2022/12/20 01:43:49;;;;;;;5.97;2.85;;;;;;;14.27;57.79;101245.78;5073647;28;20494;-71
2022/12/20 01:46:17;;;;;;;3.28;2.30;;;;;;;14.27;58.09;101252.06;5073716;28;20053;-71
2022/12/20 01:48:51;;;;;;;5.30;2.40;;;;;;;14.25;57.93;101259.41;5072316;28;20048;-71
2022/12/20 01:51:18;;;;;;;3.97;2.40;;;;;;;14.23;57.97;101263.22;5073911;28;20070;-70
2022/12/20 01:53:47;;;;;;;3.83;2.50;;;;;;;14.21;58.32;101276.00;5077444;28;20209;-71
2022/12/20 01:56:14;;;;;;;4.47;2.67;;;;;;;14.19;58.53;101270.72;5093825;28;20036;-72
2022/12/20 01:58:41;;;;;;;4.28;2.70;;;;;;;14.18;58.88;101277.09;5093974;28;20035;-72
2022/12/20 02:01:08;;;;;;;3.63;2.45;;;;;;;14.16;59.01;101260.16;5092393;28;20039;-73
2022/12/20 02:03:34;;;;;;;3.25;2.20;;;;;;;14.14;58.82;101254.00;5086605;28;20041;-72
2022/12/20 02:06:19;;;;;;;6.03;2.90;;;;;;;14.11;59.26;101248.81;5073073;28;20487;-72
2022/12/20 02:08:48;;;;;;;4.45;2.80;;;;;;;14.10;59.35;101247.09;5073401;28;20049;-73
2022/12/20 02:11:30;;;;;;;4.25;2.35;;;;;;;14.07;59.45;101243.78;5073381;28;20037;-72
2022/12/20 02:14:00;;;;;;;4.57;2.72;;;;;;;14.01;59.67;101239.72;5079850;28;20509;-72
2022/12/20 02:16:33;;;;;;;5.00;3.00;;;;;;;13.99;59.56;101231.75;5092295;28;20068;-72
2022/12/20 02:19:37;;;;;;;10.43;3.65;;;;;;;13.95;60.14;101224.88;5093869;28;20047;-73
2022/12/20 02:22:34;;;;;;;5.28;3.10;;;;;;;13.95;59.92;101214.06;5034030;28;20045;-73
2022/12/20 02:25:31;;;;;;;6.72;3.10;;;;;;;13.93;60.21;101207.09;5094908;28;20037;-71
2022/12/20 02:28:31;;;;;;;4.55;2.97;;;;;;;13.89;60.26;101205.59;5092616;28;20074;-72
2022/12/20 02:31:02;;;;;;;3.53;2.97;;;;;;;13.87;60.07;101207.56;5093635;28;20036;-72
2022/12/20 02:33:29;;;;;;;5.65;3.50;;;;;;;13.85;60.41;101221.19;5085386;28;20040;-72
2022/12/20 02:35:56;;;;;;;5.80;3.28;;;;;;;13.84;60.36;101210.50;5073105;28;20044;-71
2022/12/20 02:38:32;;;;;;;4.63;3.15;;;;;;;13.83;60.59;101201.56;5073230;28;20043;-72
2022/12/20 02:41:18;;;;;;;5.20;3.13;;;;;;;13.82;60.89;101180.94;5073054;28;20495;-71
2022/12/20 02:46:37;;;;;;;4.63;3.10;;;;;;;13.80;60.72;101188.28;5073222;28;20047;-72
2022/12/20 02:49:13;;;;;;;4.53;3.40;;;;;;;13.81;61.01;101181.06;5075332;28;20139;-73
2022/12/20 02:51:43;;;;;;;4.60;3.20;;;;;;;13.78;60.90;101168.66;5077079;28;20040;-72
2022/12/20 02:54:10;;;;;;;3.17;2.78;;;;;;;13.79;61.30;101173.06;5090845;28;20046;-72
2022/12/20 02:56:48;;;;;;;4.25;3.13;;;;;;;13.78;61.01;101167.81;5095956;28;20081;-72
2022/12/20 02:59:31;;;;;;;4.45;3.00;;;;;;;13.77;61.09;101161.53;5097349;28;20040;-71
2022/12/20 03:01:58;;;;;;;6.25;2.97;;;;;;;13.77;60.92;101163.38;5095478;28;20127;-72
2022/12/20 03:04:28;;;;;;;6.38;3.53;;;;;;;13.77;61.15;101155.28;5095798;28;20469;-73
2022/12/20 03:06:57;;;;;;;4.00;2.83;;;;;;;13.78;61.48;101154.31;5095483;28;20044;-72
2022/12/20 03:09:24;;;;;;;4.57;3.20;;;;;;;13.78;61.16;101165.97;5095733;28;20491;-72
2022/12/20 03:11:52;;;;;;;3.75;2.50;;;;;;;13.79;61.41;101156.03;5095477;28;20051;-71
2022/12/20 03:14:19;;;;;;;4.25;3.10;;;;;;;13.79;61.33;101156.88;5094355;28;20078;-72
2022/12/20 03:16:47;;;;;;;3.72;2.70;;;;;;;13.80;61.45;101153.19;5095401;28;20073;-72
2022/12/20 03:19:14;;;;;;;4.30;2.78;;;;;;;13.81;61.47;101157.63;5095579;28;20074;-73
2022/12/20 03:21:41;;;;;;;5.97;2.90;;;;;;;13.82;60.99;101172.84;5095477;28;20083;-73
2022/12/20 03:24:09;;;;;;;3.95;3.13;;;;;;;13.84;61.45;101167.31;5080224;28;20033;-73
2022/12/20 03:26:36;;;;;;;4.35;2.80;;;;;;;13.86;60.99;101182.41;5075165;28;20498;-72
2022/12/20 03:29:03;;;;;;;3.47;2.47;;;;;;;13.87;60.99;101170.63;5074918;28;20452;-72
2022/12/20 03:31:30;;;;;;;3.67;2.33;;;;;;;13.88;61.40;101158.00;5074993;28;20048;-73
2022/12/20 03:33:57;;;;;;;3.05;2.63;;;;;;;13.89;60.95;101155.16;5074860;28;20040;-73
2022/12/20 03:36:24;;;;;;;3.88;2.60;;;;;;;13.93;61.43;101155.78;5091743;28;20048;-72
2022/12/20 03:38:56;;;;;;;6.15;2.75;;;;;;;13.93;61.20;101161.19;5095072;28;20043;-73
2022/12/20 03:41:25;;;;;;;2.30;2.10;;;;;;;13.97;61.26;101151.84;5095169;28;20048;-72
2022/12/20 03:43:52;;;;;;;4.63;2.65;;;;;;;13.99;61.00;101150.75;5094370;28;20444;-72
2022/12/20 03:46:20;;;;;;;3.47;2.70;;;;;;;14.03;61.18;101150.50;5095040;28;20068;-72
2022/12/20 03:48:47;;;;;;;5.80;2.78;;;;;;;14.06;61.29;101150.25;5094726;28;20059;-71
2022/12/20 03:51:14;;;;;;;3.28;2.67;;;;;;;14.09;61.13;101156.25;5094759;28;20521;-73
2022/12/20 03:53:40;;;;;;;3.92;2.47;;;;;;;14.14;61.01;101155.91;5095243;28;20064;-71
2022/12/20 03:56:10;;;;;;;3.35;2.30;;;;;;;14.15;61.09;101150.41;5094697;28;20147;-72
2022/12/20 03:58:38;;;;;;;4.20;2.50;;;;;;;14.20;61.03;101163.53;5094034;28;20453;-71
2022/12/20 04:01:25;;;;;;;3.03;2.47;;;;;;;14.21;60.88;101166.09;5096023;28;20035;-72
2022/12/20 04:03:54;;;;;;;3.30;2.40;;;;;;;14.27;60.88;101171.00;5094492;28;20502;-72
2022/12/20 04:06:22;;;;;;;3.40;2.30;;;;;;;14.27;60.56;101171.00;5087205;28;20032;-71
2022/12/20 04:08:49;;;;;;;3.55;2.30;;;;;;;14.30;60.76;101164.50;5074018;28;20476;-71
2022/12/20 04:11:23;;;;;;;3.90;2.13;;;;;;;14.33;60.77;101158.84;5075903;28;20127;-72
2022/12/20 04:13:59;;;;;;;4.43;2.50;;;;;;;14.35;60.81;101156.00;5074125;28;20086;-72
2022/12/20 04:16:28;;;;;;;3.10;2.30;;;;;;;14.37;60.41;101152.19;5074232;28;20138;-70
2022/12/20 04:18:55;;;;;;;3.88;2.45;;;;;;;14.39;60.49;101150.22;5075088;28;20036;-71
2022/12/20 04:21:24;;;;;;;3.30;2.10;;;;;;;14.40;60.51;101146.53;5075183;28;20040;-71
2022/12/20 04:23:53;;;;;;;3.28;2.40;;;;;;;14.43;60.82;101142.75;5073824;28;20411;-71
2022/12/20 04:26:23;;;;;;;2.90;2.42;;;;;;;14.45;60.79;101138.09;5073950;28;20135;-70
2022/12/20 04:28:50;;;;;;;5.05;1.90;;;;;;;14.48;60.31;101137.84;5073807;28;20044;-71
2022/12/20 04:31:17;;;;;;;6.63;2.63;;;;;;;14.51;60.21;101145.69;5091436;28;20516;-72
2022/12/20 04:33:50;;;;;;;3.22;2.30;;;;;;;14.53;60.61;101144.56;5093993;28;20044;-71
2022/12/20 04:36:18;;;;;;;2.90;2.08;;;;;;;14.54;60.32;101132.78;5094170;28;20040;-71
2022/12/20 04:38:44;;;;;;;3.10;2.10;;;;;;;14.55;60.47;101142.59;5093817;28;20048;-71
2022/12/20 04:41:21;;;;;;;3.63;2.30;;;;;;;14.58;60.23;101136.94;5092942;28;20483;-71
2022/12/20 04:43:56;;;;;;;3.00;2.03;;;;;;;14.60;60.35;101139.50;5093976;28;20085;-70
2022/12/20 04:46:28;;;;;;;4.40;2.25;;;;;;;14.60;60.41;101131.41;5094634;28;20028;-71
2022/12/20 04:48:56;;;;;;;4.70;2.83;;;;;;;14.61;60.33;101127.72;5093505;28;20161;-71
2022/12/20 04:51:26;;;;;;;4.18;2.30;;;;;;;14.62;60.13;101130.28;5093832;28;20050;-70
2022/12/20 04:53:53;;;;;;;3.72;2.50;;;;;;;14.64;60.25;101135.56;5092697;28;20036;-71
2022/12/20 04:56:28;;;;;;;3.58;2.17;;;;;;;14.66;60.18;101132.75;5093881;28;20043;-70
2022/12/20 04:59:02;;;;;;;3.42;2.20;;;;;;;14.67;60.09;101126.34;5093727;28;20068;-70
2022/12/20 05:01:29;;;;;;;4.53;2.30;;;;;;;14.68;60.13;101134.31;5093510;28;20070;-70
2022/12/20 05:03:56;;;;;;;3.53;2.33;;;;;;;14.68;59.73;101130.78;5093359;28;20085;-70
2022/12/20 05:06:24;;;;;;;3.53;2.20;;;;;;;14.69;60.08;101127.06;5085591;28;20065;-71
2022/12/20 05:08:51;;;;;;;3.33;2.35;;;;;;;14.69;60.05;101127.06;5072902;28;20044;-72
2022/12/20 05:11:18;;;;;;;3.40;2.40;;;;;;;14.69;60.08;101125.22;5072137;28;20139;-71
2022/12/20 05:13:45;;;;;;;5.38;2.40;;;;;;;14.70;59.92;101124.25;5072631;28;20044;-71
2022/12/20 05:16:15;;;;;;;3.90;2.45;;;;;;;14.70;60.04;101126.94;5073611;28;20048;-71
2022/12/20 05:18:42;;;;;;;4.53;2.05;;;;;;;14.70;60.09;101121.53;5072473;28;20121;-70
2022/12/20 05:26:59;;;;;;;6.05;2.50;;;;;;;14.74;59.90;101111.31;5089757;28;20449;-70
2022/12/20 05:29:26;;;;;;;3.85;2.35;;;;;;;14.73;60.04;101090.69;5074006;28;20044;-70
2022/12/20 05:31:53;;;;;;;4.13;2.60;;;;;;;14.72;59.60;101100.63;5092117;28;20040;-71
2022/12/20 05:34:20;;;;;;;3.35;2.42;;;;;;;14.72;59.98;101095.22;5092774;28;20040;-70
2022/12/20 05:36:51;;;;;;;3.70;2.30;;;;;;;14.74;59.97;101095.09;5094587;28;20036;-70
2022/12/20 05:39:19;;;;;;;4.22;2.40;;;;;;;14.73;59.74;101087.97;5092815;28;20048;-69
2022/12/20 05:41:47;;;;;;;3.05;2.15;;;;;;;14.73;59.84;101086.13;5092802;28;20032;-70
2022/12/20 05:44:16;;;;;;;3.20;2.50;;;;;;;14.73;59.92;101085.28;5072437;28;20043;-70
2022/12/20 05:46:46;;;;;;;4.72;2.22;;;;;;;14.74;60.02;101087.84;5072642;28;20563;-71
2022/12/20 05:49:19;;;;;;;5.43;2.47;;;;;;;14.73;60.05;101079.88;5072240;28;20122;-71
2022/12/20 05:51:46;;;;;;;3.08;2.45;;;;;;;14.73;60.20;101075.31;5086285;28;20097;-69
2022/12/20 05:54:20;;;;;;;3.60;2.17;;;;;;;14.72;60.11;101081.72;5092470;28;20086;-70
2022/12/20 05:56:54;;;;;;;6.28;2.65;;;;;;;14.72;59.79;101087.13;5092547;28;20089;-69
2022/12/20 05:59:30;;;;;;;3.97;2.40;;;;;;;14.71;60.03;101088.13;5092581;28;20063;-69
2022/12/20 06:01:56;;;;;;;3.20;1.98;;;;;;;14.71;60.04;101081.84;5092770;28;20036;-69
2022/12/20 06:04:23;;;;;;;2.80;2.20;;;;;;;14.69;59.91;101083.81;5092210;28;20044;-69
2022/12/20 06:06:51;;;;;;;2.88;2.10;;;;;;;14.68;59.92;101085.66;5092257;28;20044;-70
2022/12/20 06:09:18;;;;;;;3.20;1.90;;;;;;;14.67;60.11;101085.81;5092079;28;20048;-70
2022/12/20 06:12:05;;;;;;;4.72;2.00;;;;;;;14.67;59.93;101078.53;5091609;28;20044;-70
2022/12/20 06:14:33;;;;;;;4.50;2.60;;;;;;;14.66;60.07;101068.72;5073248;28;20112;-69
2022/12/20 06:17:01;;;;;;;3.85;2.17;;;;;;;14.65;60.05;101061.59;5071941;28;20036;-71
2022/12/20 06:19:29;;;;;;;4.13;2.30;;;;;;;14.66;60.09;101063.31;5072267;28;20051;-71
2022/12/20 06:21:56;;;;;;;3.00;2.33;;;;;;;14.66;59.88;101048.94;5071371;28;20044;-70
2022/12/20 06:24:35;;;;;;;3.72;2.28;;;;;;;14.66;59.99;101043.53;5077110;28;20036;-70
2022/12/20 06:27:05;;;;;;;4.40;2.63;;;;;;;14.64;59.97;101046.38;5093405;28;20044;-70
2022/12/20 06:29:32;;;;;;;4.20;2.67;;;;;;;14.63;59.93;101039.25;5091914;28;20094;-70
2022/12/20 06:32:07;;;;;;;2.75;2.40;;;;;;;14.63;59.93;101028.44;5092096;28;20063;-70
2022/12/20 06:34:36;;;;;;;3.05;2.30;;;;;;;14.61;59.63;101039.38;5092330;28;20052;-71
2022/12/20 06:37:03;;;;;;;6.05;2.33;;;;;;;14.60;59.98;101034.97;5083720;28;20036;-70
2022/12/20 06:39:32;;;;;;;2.58;2.13;;;;;;;14.61;59.90;101033.13;5071475;28;20040;-70
2022/12/20 06:42:03;;;;;;;4.68;2.25;;;;;;;14.59;59.74;101041.34;5071414;28;20094;-70
2022/12/20 06:44:33;;;;;;;4.38;2.70;;;;;;;14.57;59.63;101037.06;5088622;28;20090;-70
2022/12/20 06:47:00;;;;;;;3.20;2.53;;;;;;;14.55;59.64;101042.59;5071677;28;20040;-70
2022/12/20 06:49:28;;;;;;;3.65;2.42;;;;;;;14.52;59.55;101028.50;5080617;28;20135;-70
2022/12/20 06:51:56;;;;;;;5.63;2.53;;;;;;;14.52;59.65;101050.13;5071365;28;20045;-69
2022/12/20 06:54:32;;;;;;;3.42;2.38;;;;;;;14.50;59.55;101038.56;5071913;28;20098;-70
2022/12/20 06:56:59;;;;;;;3.53;2.60;;;;;;;14.46;59.43;101046.09;5071415;28;20094;-69
2022/12/20 06:59:25;;;;;;;3.22;2.83;;;;;;;14.45;59.49;101044.38;5071567;28;20139;-70
2022/12/20 07:01:52;;;;;;;4.40;2.25;;;;;;;14.41;59.39;101029.38;5072178;28;20463;-71
2022/12/20 07:04:20;;;;;;;3.25;2.20;;;;;;;14.38;59.25;101026.06;5073157;28;20044;-71
2022/12/20 07:06:46;;;;;;;4.10;2.40;;;;;;;14.36;59.33;101033.44;5071371;28;20044;-70
2022/12/20 07:09:13;;;;;;;5.05;2.28;;;;;;;14.35;59.28;101034.44;5072607;28;20498;-70
2022/12/20 07:11:42;;;;;;;4.57;2.67;;;;;;;14.32;59.38;101041.81;5072473;28;20048;-71
2022/12/20 07:14:09;;;;;;;3.85;2.45;;;;;;;14.32;59.15;101038.25;5072578;28;20036;-70
2022/12/20 07:16:36;;;;;;;4.65;2.35;;;;;;;14.32;59.31;101036.41;5072736;28;20032;-71
2022/12/20 07:19:03;;;;;;;4.20;2.20;;;;;;;14.32;59.42;101040.94;5072644;28;20049;-69
2022/12/20 07:21:30;;;;;;;3.17;2.50;;;;;;;14.31;59.18;101040.09;5072665;28;20041;-71
2022/12/20 07:23:57;;;;;;;4.20;2.42;;;;;;;14.30;59.10;101046.47;5072358;28;20032;-75
2022/12/20 07:26:23;;;;;;;4.78;2.10;;;;;;;14.31;58.96;101033.81;5071285;28;20474;-74
2022/12/20 07:28:50;;;;;;;3.13;2.25;;;;;;;14.28;59.18;101037.66;5054491;28;20052;-74
2022/12/20 07:31:17;;;;;;;4.03;2.55;;;;;;;14.30;59.20;101034.81;5071536;28;20422;-72
2022/12/20 07:33:43;;;;;;;3.33;2.05;;;;;;;14.30;59.24;101037.50;5072550;28;20106;-72
2022/12/20 07:36:12;;;;;;;3.13;2.25;;;;;;;14.27;58.91;101032.38;5074778;28;20048;-73
2022/12/20 07:38:39;;;;;;;5.57;2.05;;;;;;;14.27;59.24;101035.06;5076043;28;20153;-72
2022/12/20 07:41:13;;;;;;;4.72;2.10;;;;;;;14.27;58.88;101035.94;5076015;28;20071;-73
2022/12/20 07:43:41;;;;;;;5.47;2.33;;;;;;;14.28;58.87;101036.78;5075771;28;20110;-72
2022/12/20 07:46:11;;;;;;;3.63;2.33;;;;;;;14.27;58.98;101040.47;5075863;28;20037;-72
2022/12/20 07:48:38;;;;;;;3.05;2.40;;;;;;;14.28;59.23;101043.03;5075671;28;20041;-72
2022/12/20 07:51:08;;;;;;;3.17;2.00;;;;;;;14.29;58.65;101052.00;5074617;28;20032;-72
2022/12/20 07:53:39;;;;;;;2.53;1.85;;;;;;;14.29;59.13;101049.31;5075647;28;20046;-72
2022/12/20 07:56:09;;;;;;;3.53;2.17;;;;;;;14.29;58.85;101050.16;5075652;28;20052;-72
2022/12/20 07:58:38;;;;;;;3.35;2.20;;;;;;;14.30;58.78;101046.47;5075635;28;20063;-72
2022/12/20 08:01:09;;;;;;;4.88;2.78;;;;;;;14.30;58.80;101054.59;5075943;28;20549;-71
2022/12/20 08:03:43;;;;;;;3.38;2.38;;;;;;;14.31;58.61;101052.75;5075320;28;20067;-72
2022/12/20 08:06:11;;;;;;;3.15;2.10;;;;;;;14.32;58.98;101043.66;5075661;28;20040;-73
2022/12/20 08:08:43;;;;;;;3.30;2.10;;;;;;;14.31;58.68;101050.91;5075433;28;20094;-72
2022/12/20 08:11:11;;;;;;;3.13;2.08;;;;;;;14.32;58.73;101054.47;5093232;27;20097;-73
2022/12/20 08:13:38;;;;;;;5.38;2.10;;;;;;;14.32;58.58;101058.00;5093791;28;20044;-73
2022/12/20 08:16:12;;;;;;;3.63;2.28;;;;;;;14.35;58.79;101061.44;5095610;28;20395;-73
2022/12/20 08:18:39;;;;;;;2.90;2.10;;;;;;;14.35;58.46;101065.00;5095497;28;20537;-73
2022/12/20 08:21:05;;;;;;;4.25;2.40;;;;;;;14.34;58.78;101063.28;5094387;28;20032;-73
2022/12/20 08:23:32;;;;;;;3.40;2.30;;;;;;;14.37;58.97;101068.44;5095333;28;20036;-73
2022/12/20 08:26:02;;;;;;;3.13;1.90;;;;;;;14.37;58.63;101064.88;5094820;28;20118;-73
2022/12/20 08:28:28;;;;;;;4.65;2.47;;;;;;;14.37;58.91;101060.34;5092618;28;20395;-72
2022/12/20 08:31:03;;;;;;;3.50;2.20;;;;;;;14.36;58.85;101058.63;5074091;28;20048;-74
2022/12/20 08:33:32;;;;;;;3.70;2.20;;;;;;;14.37;58.84;101052.22;5074851;28;20037;-74
2022/12/20 08:36:01;;;;;;;3.30;2.20;;;;;;;14.37;59.01;101057.63;5073771;28;20064;-74
2022/12/20 08:38:29;;;;;;;4.05;2.15;;;;;;;14.37;59.28;101054.06;5086180;28;20055;-74
2022/12/20 08:41:11;;;;;;;3.90;1.90;;;;;;;14.35;59.06;101062.31;5095103;28;20093;-74
2022/12/20 08:43:38;;;;;;;4.72;2.00;;;;;;;14.37;59.49;101060.34;5096598;28;20063;-74
2022/12/20 08:46:07;;;;;;;3.53;2.00;;;;;;;14.36;59.62;101060.47;5101653;28;20036;-75
2022/12/20 08:48:34;;;;;;;3.17;2.50;;;;;;;14.34;59.32;101060.59;5079945;28;20051;-76
2022/12/20 08:51:03;;;;;;;3.80;2.10;;;;;;;14.35;59.84;101062.31;5099288;28;20036;-76
2022/12/20 08:53:31;;;;;;;3.80;2.00;;;;;;;14.35;59.73;101053.34;5073155;28;20056;-76
2022/12/20 08:56:10;;;;;;;3.67;2.30;;;;;;;14.36;60.04;101055.06;5073389;28;20040;-75
2022/12/20 08:58:38;;;;;;;3.05;1.90;;;;;;;14.36;59.84;101050.50;5075948;28;20057;-74
2022/12/20 09:01:07;;;;;;;2.60;1.67;;;;;;;14.35;59.84;101045.22;5091240;28;20551;-69
2022/12/20 09:03:35;;;;;;;3.58;2.25;;;;;;;14.34;60.20;101047.06;5094440;28;20068;-70
2022/12/20 09:06:11;;;;;;;2.72;1.80;;;;;;;14.34;60.02;101046.22;5094502;28;20177;-70
2022/12/20 09:08:38;;;;;;;;;;;;;;;14.36;60.21;101047.81;5093249;28;20512;-70
2022/12/20 09:11:08;;;;;;;5.22;2.50;;;;;;;14.37;60.26;101048.66;5092203;28;19927;-70
2022/12/20 09:13:35;;;;;;;2.22;1.90;;;;;;;14.32;60.14;101047.22;5092228;28;20569;-71
2022/12/20 09:16:10;;;;;;;2.97;1.73;;;;;;;14.30;60.35;101043.78;5091341;28;20040;-70
2022/12/20 09:18:37;;;;;;;4.32;2.10;;;;;;;14.27;60.13;101051.28;5092319;28;20089;-70
2022/12/20 09:21:05;;;;;;;4.38;2.10;;;;;;;14.25;60.42;101040.59;5092375;28;20044;-70
2022/12/20 09:23:34;;;;;;;4.03;2.28;;;;;;;14.22;60.39;101043.56;5091970;28;20072;-69
2022/12/20 09:26:12;;;;;;;3.47;2.20;;;;;;;14.22;60.46;101034.59;5094734;28;20094;-69
2022/12/20 09:28:39;;;;;;;3.47;1.98;;;;;;;14.22;60.67;101032.75;5094429;28;20115;-70
2022/12/20 09:31:10;;;;;;;2.92;2.20;;;;;;;14.20;61.04;101033.88;5094171;28;20113;-70
2022/12/20 09:33:37;;;;;;;3.25;2.22;;;;;;;14.22;61.16;101035.47;5093973;28;20044;-70
2022/12/20 09:36:04;;;;;;;2.67;2.15;;;;;;;14.22;61.15;101024.66;5094243;28;20448;-70
2022/12/20 09:38:31;;;;;;;3.30;2.53;;;;;;;14.24;61.15;101032.63;5094149;28;20036;-70
2022/12/20 09:41:01;;;;;;;5.28;2.67;;;;;;;14.25;61.21;101042.44;5094229;28;20462;-69
2022/12/20 09:43:27;;;;;;;6.22;2.83;;;;;;;14.25;60.99;101047.84;5093860;28;20048;-70
2022/12/20 09:45:57;;;;;;;3.20;2.33;;;;;;;14.25;61.25;101032.50;5092852;28;20048;-70
2022/12/20 09:48:30;;;;;;;2.78;2.20;;;;;;;14.27;61.54;101037.78;5092841;28;20135;-68
2022/12/20 09:51:17;;;;;;;2.60;1.90;;;;;;;14.31;61.55;101025.72;5094124;28;20040;-66
2022/12/20 09:54:07;;;;;;;4.57;2.30;;;;;;;14.35;61.49;101026.31;5090096;28;20048;-68
2022/12/20 09:56:39;;;;;;;5.63;2.28;;;;;;;14.36;61.87;101034.28;5092726;28;20036;-68
2022/12/20 09:59:14;;;;;;;3.35;2.30;;;;;;;14.41;61.98;101012.28;5090441;28;20036;-68
2022/12/20 10:01:47;;;;;;;3.70;2.20;;;;;;;14.46;61.97;101018.19;5073272;28;20072;-69
2022/12/20 10:04:20;;;;;;;4.20;2.33;;;;;;;14.49;61.87;101016.09;5084712;27;20486;-68
2022/12/20 10:07:08;;;;;;;4.03;2.13;;;;;;;14.53;61.99;101017.56;5093844;28;20043;-68
2022/12/20 10:09:50;;;;;;;4.47;2.17;;;;;;;14.59;61.73;101016.16;5088915;28;20062;-67
2022/12/20 10:12:23;;;;;;;2.75;1.88;;;;;;;14.63;61.80;101012.22;5091806;28;20044;-68
2022/12/20 10:15:12;;;;;;;4.30;2.50;;;;;;;14.67;61.84;101018.22;5105268;28;20092;-69
2022/12/20 10:17:48;;;;;;;2.05;1.80;;;;;;;14.66;61.67;101006.56;5097209;28;20040;-68
2022/12/20 10:20:36;;;;;;;2.95;1.90;;;;;;;14.68;61.81;101004.56;5093230;28;20051;-68
2022/12/20 10:23:14;;;;;;;3.45;1.80;;;;;;;14.71;61.61;101006.16;5092890;28;20101;-68
2022/12/20 10:25:42;;;;;;;2.40;1.73;;;;;;;14.72;61.40;101007.88;5092725;28;20591;-68
2022/12/20 10:28:14;;;;;;;4.10;1.83;;;;;;;14.73;61.90;101004.19;5091564;28;20032;-68
2022/12/20 10:30:42;;;;;;;5.50;2.60;;;;;;;14.74;61.45;101000.47;5091619;28;20516;-68
2022/12/20 10:33:20;;;;;;;4.03;1.80;;;;;;;14.75;61.64;101002.19;5093353;28;20098;-69
2022/12/20 10:35:47;;;;;;;3.15;2.10;;;;;;;14.79;61.39;100992.84;5097718;28;20068;-69
2022/12/20 10:38:16;;;;;;;3.90;1.90;;;;;;;14.83;61.60;100994.28;5093254;28;20072;-69
2022/12/20 10:40:46;;;;;;;3.15;1.70;;;;;;;14.85;61.29;100990.47;5092389;28;20444;-70
2022/12/20 10:43:43;;;;;;;3.95;1.83;;;;;;;14.90;61.33;100996.34;5088968;28;20050;-68
2022/12/20 10:46:12;;;;;;;3.15;1.90;;;;;;;14.94;61.38;100986.97;5080772;28;20044;-68
2022/12/20 10:48:40;;;;;;;3.42;1.90;;;;;;;14.97;61.53;100988.56;5072759;28;20033;-68
2022/12/20 10:51:07;;;;;;;3.55;2.28;;;;;;;15.01;61.55;100987.31;5085769;28;20048;-68
2022/12/20 10:54:02;;;;;;;4.55;2.00;;;;;;;15.04;61.52;100995.16;5088784;28;20047;-68
2022/12/20 10:56:31;;;;;;;3.45;2.10;;;;;;;15.06;61.09;100995.88;5092666;28;20060;-68
2022/12/20 10:58:58;;;;;;;6.38;2.55;;;;;;;15.08;61.21;100999.31;5091734;28;20064;-69
2022/12/20 11:01:30;;;;;;;5.60;2.33;;;;;;;15.09;60.99;101001.00;5091794;28;20036;-68
2022/12/20 11:04:03;;;;;;;2.40;2.08;;;;;;;15.10;61.20;100996.47;5092812;28;20040;-69
2022/12/20 11:06:35;;;;;;;3.10;2.00;;;;;;;15.09;61.28;101000.16;5092777;28;20086;-69
2022/12/20 11:09:18;;;;;;;4.20;2.28;;;;;;;15.09;61.58;100992.03;5093453;28;20040;-68
2022/12/20 11:11:59;;;;;;;4.93;2.60;;;;;;;15.07;61.64;100985.91;5094430;28;20044;-69
2022/12/20 11:14:27;;;;;;;5.30;2.50;;;;;;;15.06;61.74;100985.06;5096549;28;20067;-68
2022/12/20 11:17:28;;;;;;;4.00;2.50;;;;;;;15.04;61.80;100987.03;5095582;28;20047;-69
2022/12/20 11:20:13;;;;;;;6.18;2.70;;;;;;;15.03;61.47;100985.31;5089153;28;20095;-69
2022/12/20 11:22:55;;;;;;;4.38;2.70;;;;;;;14.98;61.86;100978.59;5076253;28;20101;-69
2022/12/20 11:25:40;;;;;;;3.65;2.38;;;;;;;14.96;61.91;100983.28;5076406;28;20040;-69
2022/12/20 11:28:39;;;;;;;4.15;2.63;;;;;;;14.94;61.68;100983.41;5075856;28;20514;-69
2022/12/20 11:31:35;;;;;;;4.82;2.45;;;;;;;14.90;62.20;100974.72;5055976;28;20533;-69
2022/12/20 11:34:27;;;;;;;5.68;2.88;;;;;;;14.89;62.01;100969.44;5076363;28;20072;-69
2022/12/20 11:37:03;;;;;;;3.67;2.63;;;;;;;14.87;62.08;100974.13;5074571;28;20044;-69
2022/12/20 11:39:51;;;;;;;3.75;2.70;;;;;;;14.87;62.35;100975.00;5078685;28;20040;-69
2022/12/20 11:42:20;;;;;;;6.32;2.97;;;;;;;14.88;62.29;100975.84;5075787;28;20090;-68
2022/12/20 11:45:09;;;;;;;3.97;2.78;;;;;;;14.86;62.27;100975.97;5074790;28;20056;-68
2022/12/20 11:47:44;;;;;;;7.55;2.83;;;;;;;14.88;62.64;100968.59;5079910;28;20032;-69
2022/12/20 11:50:32;;;;;;;5.95;3.30;;;;;;;14.89;62.71;100966.75;5093097;28;20052;-68
2022/12/20 11:53:09;;;;;;;6.05;2.47;;;;;;;14.88;62.49;100959.63;5095897;28;20051;-68